createdAt,value
2022-10-19T00:01:02.205Z,7.78
2022-10-19T00:03:29.626Z,8.27
2022-10-19T00:05:56.935Z,7.47
2022-10-19T00:08:24.177Z,7.63
2022-10-19T00:10:51.391Z,7.15
2022-10-19T00:13:18.936Z,7.90
2022-10-19T00:15:48.155Z,7.10
2022-10-19T00:18:15.364Z,7.50
2022-10-19T00:20:42.663Z,7.35
2022-10-19T00:23:10.022Z,7.13
2022-10-19T00:25:38.466Z,7.32
2022-10-19T00:28:05.754Z,7.85
2022-10-19T00:30:37.145Z,7.70
2022-10-19T00:33:04.837Z,7.07
2022-10-19T00:35:32.015Z,8.13
2022-10-19T00:37:59.238Z,7.78
2022-10-19T00:40:26.556Z,7.25
2022-10-19T00:42:57.080Z,7.55
2022-10-19T00:45:24.350Z,7.63
2022-10-19T00:48:02.854Z,7.68
2022-10-19T00:50:30.095Z,7.13
2022-10-19T00:52:57.445Z,7.50
2022-10-19T00:55:25.007Z,7.75
2022-10-19T00:57:52.416Z,7.20
2022-10-19T01:00:19.810Z,7.30
2022-10-19T01:02:47.532Z,7.40
2022-10-19T01:05:15.329Z,7.10
2022-10-19T01:07:42.879Z,7.35
2022-10-19T01:10:10.342Z,7.05
2022-10-19T01:12:52.269Z,7.35
2022-10-19T01:15:22.913Z,6.60
2022-10-19T01:18:09.413Z,7.20
2022-10-19T01:20:36.852Z,7.05
2022-10-19T01:23:32.005Z,7.18
2022-10-19T01:25:59.146Z,7.30
2022-10-19T01:28:54.186Z,7.68
2022-10-19T01:31:30.343Z,7.15
2022-10-19T01:34:05.748Z,7.68
2022-10-19T01:36:39.163Z,7.43
2022-10-19T01:39:06.394Z,7.55
2022-10-19T01:41:39.266Z,7.57
2022-10-19T01:44:19.503Z,7.05
2022-10-19T01:49:34.306Z,6.97
2022-10-19T01:52:04.895Z,7.15
2022-10-19T01:54:36.898Z,6.85
2022-10-19T01:57:06.672Z,7.47
2022-10-19T01:59:34.639Z,7.13
2022-10-19T02:02:03.104Z,7.20
2022-10-19T02:04:31.191Z,7.05
2022-10-19T02:06:58.914Z,6.97
2022-10-19T02:09:26.278Z,7.38
2022-10-19T02:11:57.373Z,7.22
2022-10-19T02:14:32.871Z,6.95
2022-10-19T02:17:03.918Z,6.90
2022-10-19T02:19:31.223Z,6.80
2022-10-19T02:21:58.730Z,7.15
2022-10-19T02:24:25.979Z,6.75
2022-10-19T02:26:53.775Z,7.00
2022-10-19T02:29:21.192Z,7.05
2022-10-19T02:31:48.792Z,7.35
2022-10-19T02:34:16.096Z,7.20
2022-10-19T02:36:43.375Z,7.35
2022-10-19T02:39:10.701Z,7.32
2022-10-19T02:42:12.139Z,6.93
2022-10-19T02:45:02.837Z,6.95
2022-10-19T02:47:43.369Z,6.72
2022-10-19T02:50:11.725Z,7.03
2022-10-19T02:52:40.366Z,6.40
2022-10-19T02:55:08.549Z,7.00
2022-10-19T02:57:36.425Z,7.20
2022-10-19T03:00:06.198Z,6.60
2022-10-19T03:02:33.482Z,6.70
2022-10-19T03:05:00.784Z,7.32
2022-10-19T03:07:28.004Z,7.18
2022-10-19T03:09:55.298Z,6.88
2022-10-19T03:12:22.846Z,6.45
2022-10-19T03:14:50.060Z,6.72
2022-10-19T03:17:17.311Z,7.15
2022-10-19T03:19:45.524Z,7.03
2022-10-19T03:22:14.136Z,7.30
2022-10-19T03:24:41.349Z,7.10
2022-10-19T03:27:08.598Z,6.95
2022-10-19T03:29:35.842Z,7.35
2022-10-19T03:32:03.074Z,7.28
2022-10-19T03:34:30.271Z,7.00
2022-10-19T03:36:59.246Z,7.22
2022-10-19T03:39:26.689Z,6.93
2022-10-19T03:41:53.851Z,7.75
2022-10-19T03:44:21.099Z,7.53
2022-10-19T03:46:48.369Z,6.82
2022-10-19T03:49:16.008Z,7.50
2022-10-19T03:51:43.675Z,7.00
2022-10-19T03:54:15.927Z,7.35
2022-10-19T03:56:43.347Z,7.10
2022-10-19T03:59:13.329Z,8.13
2022-10-19T04:01:43.120Z,6.63
2022-10-19T04:04:17.089Z,7.18
2022-10-19T04:06:46.176Z,7.65
2022-10-19T04:09:18.533Z,6.28
2022-10-19T04:11:56.631Z,7.50
2022-10-19T04:14:32.260Z,7.65
2022-10-19T04:17:03.201Z,7.75
2022-10-19T04:19:31.239Z,7.75
2022-10-19T04:21:58.939Z,7.53
2022-10-19T04:24:26.455Z,8.00
2022-10-19T04:26:55.480Z,7.47
2022-10-19T04:29:27.947Z,7.68
2022-10-19T04:31:57.285Z,7.13
2022-10-19T04:34:24.575Z,7.07
2022-10-19T04:36:53.154Z,8.35
2022-10-19T04:39:20.290Z,8.10
2022-10-19T04:41:47.454Z,8.27
2022-10-19T04:44:15.479Z,7.75
2022-10-19T04:46:42.803Z,8.90
2022-10-19T04:49:09.977Z,8.43
2022-10-19T04:51:37.250Z,8.65
2022-10-19T04:54:04.700Z,8.40
2022-10-19T04:56:32.457Z,8.60
2022-10-19T04:59:00.503Z,8.45
2022-10-19T05:01:29.508Z,8.13
2022-10-19T05:03:58.798Z,7.97
2022-10-19T05:06:26.485Z,7.83
2022-10-19T05:08:53.768Z,9.43
2022-10-19T05:11:21.300Z,11.25
2022-10-19T05:13:48.861Z,9.02
2022-10-19T05:16:18.216Z,8.88
2022-10-19T05:18:50.188Z,8.50
2022-10-19T05:21:18.533Z,7.90
2022-10-19T05:23:45.805Z,8.25
2022-10-19T05:26:18.724Z,8.57
2022-10-19T05:28:50.108Z,9.00
2022-10-19T05:31:19.260Z,9.02
2022-10-19T05:33:46.979Z,9.18
2022-10-19T05:36:19.936Z,8.60
2022-10-19T05:38:49.384Z,8.23
2022-10-19T05:41:17.671Z,9.80
2022-10-19T05:43:45.656Z,9.50
2022-10-19T05:46:15.421Z,9.68
2022-10-19T05:48:42.761Z,9.20
2022-10-19T05:51:12.225Z,9.20
2022-10-19T05:53:39.977Z,18.05
2022-10-19T05:56:08.985Z,17.30
2022-10-19T05:58:36.511Z,12.27
2022-10-19T06:01:03.962Z,9.30
2022-10-19T06:03:31.579Z,9.43
2022-10-19T06:05:58.948Z,9.27
2022-10-19T06:08:26.251Z,9.35
2022-10-19T06:10:53.537Z,9.13
2022-10-19T06:13:20.903Z,9.27
2022-10-19T06:15:50.803Z,9.27
2022-10-19T06:18:18.003Z,9.82
2022-10-19T06:20:45.534Z,8.85
2022-10-19T06:23:12.831Z,9.30
2022-10-19T06:25:40.844Z,9.48
2022-10-19T06:28:08.097Z,9.88
2022-10-19T06:30:39.652Z,9.68
2022-10-19T06:33:07.517Z,11.38
2022-10-19T06:35:35.440Z,10.75
2022-10-19T06:38:02.808Z,11.93
2022-10-19T06:40:30.219Z,10.27
2022-10-19T06:42:58.605Z,9.80
2022-10-19T06:45:26.009Z,9.55
2022-10-19T06:47:53.410Z,9.90
2022-10-19T06:50:20.814Z,9.20
2022-10-19T06:52:48.141Z,9.90
2022-10-19T06:55:17.097Z,9.18
2022-10-19T06:57:45.280Z,9.38
2022-10-19T07:00:13.400Z,9.40
2022-10-19T07:02:40.727Z,9.52
2022-10-19T07:05:08.131Z,8.63
2022-10-19T07:07:36.576Z,9.70
2022-10-19T07:10:04.528Z,8.95
2022-10-19T07:12:32.055Z,8.95
2022-10-19T07:14:59.311Z,9.32
2022-10-19T07:17:26.677Z,15.00
2022-10-19T07:19:55.051Z,10.45
2022-10-19T07:22:27.835Z,11.85
2022-10-19T07:24:55.503Z,10.93
2022-10-19T07:27:22.755Z,8.73
2022-10-19T07:29:50.057Z,8.95
2022-10-19T07:32:17.275Z,9.88
2022-10-19T07:34:44.718Z,8.60
2022-10-19T07:37:11.886Z,9.73
2022-10-19T07:39:39.119Z,8.98
2022-10-19T07:42:06.491Z,8.88
2022-10-19T07:44:33.870Z,8.35
2022-10-19T07:47:01.153Z,8.65
2022-10-19T07:49:28.483Z,10.98
2022-10-19T07:51:56.372Z,9.82
2022-10-19T07:54:24.589Z,9.05
2022-10-19T07:56:51.958Z,9.15
2022-10-19T07:59:19.371Z,8.68
2022-10-19T08:01:48.687Z,9.00
2022-10-19T08:04:55.894Z,9.00
2022-10-19T08:07:04.316Z,10.05
2022-10-19T08:09:52.256Z,9.77
2022-10-19T08:12:19.840Z,9.60
2022-10-19T08:14:48.041Z,11.25
2022-10-19T08:17:17.695Z,9.25
2022-10-19T08:19:46.315Z,9.23
2022-10-19T08:22:13.715Z,8.93
2022-10-19T08:24:40.892Z,9.43
2022-10-19T08:27:08.583Z,9.68
2022-10-19T08:29:35.873Z,8.48
2022-10-19T08:32:03.071Z,9.30
2022-10-19T08:34:30.253Z,8.25
2022-10-19T08:36:57.468Z,11.02
2022-10-19T08:39:24.815Z,8.50
2022-10-19T08:42:10.917Z,9.35
2022-10-19T08:44:59.948Z,8.38
2022-10-19T08:47:38.986Z,8.10
2022-10-19T08:50:19.272Z,8.50
2022-10-19T08:52:51.964Z,9.15
2022-10-19T08:55:24.619Z,9.38
2022-10-19T08:58:20.413Z,8.50
2022-10-19T09:00:59.230Z,8.95
2022-10-19T09:03:56.115Z,8.18
2022-10-19T09:06:29.556Z,11.00
2022-10-19T09:08:57.630Z,8.95
2022-10-19T09:11:28.262Z,8.43
2022-10-19T09:14:05.382Z,7.82
2022-10-19T09:16:35.257Z,8.20
2022-10-19T09:19:05.515Z,8.35
2022-10-19T09:24:37.827Z,8.10
2022-10-19T09:27:07.667Z,7.93
2022-10-19T09:29:42.506Z,8.13
2022-10-19T09:32:23.967Z,7.80
2022-10-19T09:34:54.481Z,7.57
2022-10-19T09:37:26.263Z,7.93
2022-10-19T09:39:55.715Z,7.43
2022-10-19T09:42:25.651Z,7.57
2022-10-19T09:44:54.455Z,8.00
2022-10-19T09:47:39.066Z,7.32
2022-10-19T09:50:09.259Z,7.38
2022-10-19T09:52:36.477Z,7.35
2022-10-19T09:55:15.065Z,7.43
2022-10-19T09:57:45.718Z,7.90
2022-10-19T10:00:21.252Z,7.50
2022-10-19T10:02:50.872Z,6.70
2022-10-19T10:05:18.770Z,7.07
2022-10-19T10:07:46.144Z,7.63
2022-10-19T10:10:37.800Z,7.53
2022-10-19T10:13:05.620Z,7.13
2022-10-19T10:15:43.243Z,6.70
2022-10-19T10:18:15.282Z,7.45
2022-10-19T10:21:00.685Z,6.75
2022-10-19T10:23:36.009Z,6.65
2022-10-19T10:26:05.175Z,6.18
2022-10-19T10:28:32.479Z,7.55
2022-10-19T10:31:01.677Z,6.20
2022-10-19T10:33:46.097Z,6.40
2022-10-19T10:36:13.778Z,6.82
2022-10-19T10:38:47.121Z,6.82
2022-10-19T10:41:20.786Z,7.00
2022-10-19T10:44:06.790Z,7.72
2022-10-19T10:46:57.746Z,6.93
2022-10-19T10:49:36.234Z,6.85
2022-10-19T10:52:17.486Z,6.20
2022-10-19T10:54:58.909Z,6.20
2022-10-19T10:57:30.750Z,6.18
2022-10-19T11:00:15.858Z,6.30
2022-10-19T11:03:04.662Z,6.53
2022-10-19T11:05:34.842Z,6.63
2022-10-19T11:08:21.266Z,6.85
2022-10-19T11:11:06.836Z,6.03
2022-10-19T11:13:49.242Z,5.82
2022-10-19T11:16:18.927Z,5.82
2022-10-19T11:18:54.775Z,5.95
2022-10-19T11:21:29.418Z,5.18
2022-10-19T11:24:19.031Z,5.82
2022-10-19T11:26:49.161Z,6.13
2022-10-19T11:32:01.758Z,5.90
2022-10-19T11:34:38.380Z,5.50
2022-10-19T11:37:34.047Z,5.72
2022-10-19T11:40:22.139Z,5.32
2022-10-19T11:42:52.594Z,5.35
2022-10-19T11:45:42.498Z,5.75
2022-10-19T11:48:40.353Z,5.38
2022-10-19T11:51:22.327Z,6.05
2022-10-19T11:54:02.176Z,5.22
2022-10-19T11:57:02.831Z,5.05
2022-10-19T12:00:00.295Z,5.35
2022-10-19T12:03:01.458Z,5.57
2022-10-19T12:05:33.823Z,5.57
2022-10-19T12:08:23.504Z,5.35
2022-10-19T12:10:50.826Z,5.00
2022-10-19T12:13:23.583Z,4.80
2022-10-19T12:15:53.965Z,5.78
2022-10-19T12:18:30.273Z,5.95
2022-10-19T12:21:00.107Z,6.80
2022-10-19T12:23:34.877Z,6.43
2022-10-19T12:26:06.076Z,4.82
2022-10-19T12:28:36.673Z,10.32
2022-10-19T12:31:04.904Z,5.82
2022-10-19T12:33:40.970Z,6.07
2022-10-19T12:36:23.759Z,5.50
2022-10-19T12:39:08.046Z,4.75
2022-10-19T12:41:45.680Z,5.10
2022-10-19T12:44:41.550Z,5.00
2022-10-19T12:47:12.563Z,4.93
2022-10-19T12:49:56.974Z,4.60
2022-10-19T12:52:48.881Z,4.55
2022-10-19T12:55:16.071Z,5.00
2022-10-19T12:57:48.604Z,4.38
2022-10-19T13:00:27.110Z,4.60
2022-10-19T13:03:15.915Z,4.28
2022-10-19T13:05:58.421Z,5.13
2022-10-19T13:08:31.700Z,4.55
2022-10-19T13:11:15.214Z,5.28
2022-10-19T13:14:14.768Z,4.97
2022-10-19T13:17:00.271Z,4.47
2022-10-19T13:19:27.651Z,5.38
2022-10-19T13:22:01.539Z,4.80
2022-10-19T13:24:35.326Z,4.70
2022-10-19T13:27:02.703Z,4.72
2022-10-19T13:29:39.113Z,5.00
2022-10-19T13:32:39.523Z,4.25
2022-10-19T13:35:22.059Z,7.22
2022-10-19T13:38:10.219Z,6.38
2022-10-19T13:40:39.268Z,6.65
2022-10-19T13:43:20.229Z,5.05
2022-10-19T13:46:08.391Z,5.25
2022-10-19T13:49:32.490Z,5.00
2022-10-19T13:52:34.335Z,4.60
2022-10-19T13:55:24.615Z,5.10
2022-10-19T14:01:08.085Z,4.63
2022-10-19T14:03:41.239Z,5.03
2022-10-19T14:06:33.246Z,4.57
2022-10-19T14:09:19.554Z,5.00
2022-10-19T14:11:50.243Z,4.53
2022-10-19T14:14:22.991Z,4.93
2022-10-19T14:16:59.617Z,4.38
2022-10-19T14:19:33.960Z,5.18
2022-10-19T14:22:02.871Z,4.63
2022-10-19T14:24:35.321Z,4.22
2022-10-19T14:27:04.459Z,4.05
2022-10-19T14:29:37.032Z,4.75
2022-10-19T14:32:04.558Z,4.60
2022-10-19T14:34:31.799Z,4.40
2022-10-19T14:36:59.064Z,4.00
2022-10-19T14:39:31.427Z,5.47
2022-10-19T14:42:04.784Z,4.75
2022-10-19T14:44:41.284Z,4.82
2022-10-19T14:47:27.160Z,3.83
2022-10-19T14:49:54.483Z,4.25
2022-10-19T14:52:32.969Z,5.40
2022-10-19T14:55:02.275Z,4.68
2022-10-19T14:57:33.138Z,5.00
2022-10-19T15:00:08.702Z,4.57
2022-10-19T15:02:44.369Z,4.63
2022-10-19T15:05:22.979Z,4.60
2022-10-19T15:07:50.373Z,4.47
2022-10-19T15:10:34.922Z,4.75
2022-10-19T15:13:05.226Z,5.25
2022-10-19T15:15:34.629Z,5.15
2022-10-19T15:18:01.992Z,4.50
2022-10-19T15:20:43.818Z,4.65
2022-10-19T15:23:34.949Z,5.32
2022-10-19T15:26:16.756Z,5.80
2022-10-19T15:28:45.451Z,6.07
2022-10-19T15:31:20.365Z,4.65
2022-10-19T15:33:54.582Z,4.93
2022-10-19T15:36:22.705Z,4.70
2022-10-19T15:39:17.511Z,4.78
2022-10-19T15:41:48.649Z,5.15
2022-10-19T15:44:33.259Z,4.72
2022-10-19T15:47:16.519Z,4.75
2022-10-19T15:49:44.398Z,5.50
2022-10-19T15:52:28.801Z,4.70
2022-10-19T15:54:57.815Z,4.90
2022-10-19T15:57:25.027Z,5.57
2022-10-19T15:59:52.773Z,5.10
2022-10-19T16:02:20.101Z,5.50
2022-10-19T16:04:47.372Z,5.40
2022-10-19T16:07:44.088Z,4.88
2022-10-19T16:10:17.341Z,5.05
2022-10-19T16:12:44.663Z,5.22
2022-10-19T16:15:13.175Z,5.45
2022-10-19T16:17:40.467Z,5.32
2022-10-19T16:20:10.463Z,5.20
2022-10-19T16:22:37.683Z,5.28
2022-10-19T16:25:05.354Z,5.13
2022-10-19T16:27:33.055Z,5.50
2022-10-19T16:30:00.655Z,5.78
2022-10-19T16:32:28.131Z,5.30
2022-10-19T16:34:55.408Z,5.28
2022-10-19T16:37:22.631Z,6.50
2022-10-19T16:39:49.815Z,5.80
2022-10-19T16:42:17.100Z,5.97
2022-10-19T16:44:44.359Z,5.75
2022-10-19T16:47:11.591Z,5.57
2022-10-19T16:49:38.985Z,6.05
2022-10-19T16:52:06.273Z,6.00
2022-10-19T16:54:33.589Z,5.72
2022-10-19T16:57:02.223Z,6.18
2022-10-19T17:01:57.943Z,6.00
2022-10-19T17:04:26.113Z,6.50
2022-10-19T17:06:54.758Z,6.88
2022-10-19T17:09:41.818Z,6.57
2022-10-19T17:12:09.745Z,6.50
2022-10-19T17:14:38.961Z,7.45
2022-10-19T17:17:06.340Z,7.10
2022-10-19T17:19:33.831Z,7.35
2022-10-19T17:22:02.858Z,7.13
2022-10-19T17:24:30.978Z,7.30
2022-10-19T17:27:01.177Z,7.00
2022-10-19T17:31:55.546Z,7.72
2022-10-19T17:34:22.889Z,8.27
2022-10-19T17:36:50.101Z,8.15
2022-10-19T17:39:25.633Z,8.25
2022-10-19T17:41:57.559Z,7.97
2022-10-19T17:44:24.881Z,8.43
2022-10-19T17:46:52.071Z,8.40
2022-10-19T17:49:19.253Z,8.43
2022-10-19T17:51:46.401Z,9.00
2022-10-19T17:54:14.431Z,8.52
2022-10-19T17:56:44.870Z,8.80
2022-10-19T17:59:12.627Z,8.48
2022-10-19T18:01:40.434Z,8.27
2022-10-19T18:04:07.771Z,9.13
2022-10-19T18:06:37.069Z,9.05
2022-10-19T18:09:06.749Z,8.47
2022-10-19T18:11:40.415Z,9.25
2022-10-19T18:14:08.928Z,9.65
2022-10-19T18:16:43.825Z,11.68
2022-10-19T18:19:12.455Z,11.18
2022-10-19T18:21:42.431Z,11.35
2022-10-19T18:24:15.277Z,11.10
2022-10-19T18:26:43.862Z,12.48
2022-10-19T18:29:13.788Z,10.23
2022-10-19T18:31:41.522Z,10.18
2022-10-19T18:34:13.660Z,10.15
2022-10-19T18:36:41.507Z,9.73
2022-10-19T18:39:10.103Z,9.27
2022-10-19T18:41:38.493Z,10.20
2022-10-19T18:44:07.273Z,9.88
2022-10-19T18:46:36.887Z,10.65
2022-10-19T18:49:06.864Z,12.25
2022-10-19T18:51:34.894Z,9.70
2022-10-19T18:54:02.367Z,10.25
2022-10-19T18:56:30.807Z,10.00
2022-10-19T18:58:58.056Z,10.50
2022-10-19T19:01:28.012Z,9.95
2022-10-19T19:03:57.900Z,10.13
2022-10-19T19:06:28.961Z,10.77
2022-10-19T19:08:57.921Z,10.10
2022-10-19T19:11:28.786Z,11.27
2022-10-19T19:14:03.854Z,11.82
2022-10-19T19:16:34.606Z,11.90
2022-10-19T19:19:02.200Z,10.88
2022-10-19T19:21:31.397Z,10.68
2022-10-19T19:24:01.037Z,9.90
2022-10-19T19:26:31.434Z,9.65
2022-10-19T19:28:59.927Z,9.25
2022-10-19T19:31:27.155Z,9.52
2022-10-19T19:33:54.520Z,9.30
2022-10-19T19:36:21.962Z,8.68
2022-10-19T19:38:51.064Z,9.55
2022-10-19T19:41:18.413Z,8.23
2022-10-19T19:43:45.986Z,9.45
2022-10-19T19:46:17.457Z,8.40
2022-10-19T19:48:46.674Z,8.77
2022-10-19T19:51:16.488Z,9.15
2022-10-19T19:53:44.228Z,9.50
2022-10-19T19:56:12.487Z,10.27
2022-10-19T19:58:41.079Z,9.63
2022-10-19T20:01:12.290Z,10.32
2022-10-19T20:03:41.755Z,9.68
2022-10-19T20:06:10.024Z,9.50
2022-10-19T20:08:37.880Z,9.43
2022-10-19T20:11:11.528Z,9.35
2022-10-19T20:13:39.383Z,10.38
2022-10-19T20:16:12.622Z,9.40
2022-10-19T20:18:41.587Z,10.38
2022-10-19T20:21:09.923Z,11.30
2022-10-19T20:23:38.504Z,10.13
2022-10-19T20:26:06.329Z,10.32
2022-10-19T20:28:34.437Z,10.80
2022-10-19T20:31:05.636Z,9.85
2022-10-19T20:33:35.075Z,9.82
2022-10-19T20:36:07.126Z,11.07
2022-10-19T20:38:36.057Z,10.63
2022-10-19T20:41:07.752Z,10.02
2022-10-19T20:43:36.340Z,10.80
2022-10-19T20:46:17.961Z,10.25
2022-10-19T20:48:45.906Z,9.60
2022-10-19T20:51:23.037Z,9.77
2022-10-19T20:53:53.208Z,10.57
2022-10-19T20:56:23.193Z,10.00
2022-10-19T20:58:58.961Z,10.43
2022-10-19T21:01:27.511Z,10.10
2022-10-19T21:03:56.883Z,10.25
2022-10-19T21:06:25.346Z,10.10
2022-10-19T21:08:52.948Z,9.90
2022-10-19T21:11:28.179Z,9.70
2022-10-19T21:13:57.349Z,10.73
2022-10-19T21:16:30.244Z,20.42
2022-10-19T21:18:57.973Z,12.40
2022-10-19T21:21:28.124Z,10.80
2022-10-19T21:26:27.185Z,10.57
2022-10-19T21:28:54.459Z,10.00
2022-10-19T21:31:23.119Z,10.48
2022-10-19T21:33:51.055Z,10.52
2022-10-19T21:36:19.392Z,10.73
2022-10-19T21:38:47.095Z,9.55
2022-10-19T21:41:20.807Z,10.45
2022-10-19T21:43:51.084Z,9.93
2022-10-19T21:46:20.106Z,10.13
2022-10-19T21:48:47.646Z,10.15
2022-10-19T21:51:23.282Z,10.23
2022-10-19T21:53:51.003Z,9.73
2022-10-19T21:56:18.396Z,10.55
2022-10-19T21:58:46.663Z,10.85
2022-10-19T22:01:14.502Z,11.25
2022-10-19T22:03:42.033Z,10.15
2022-10-19T22:06:10.052Z,10.50
2022-10-19T22:08:38.724Z,10.68
2022-10-19T22:11:10.734Z,10.05
2022-10-19T22:13:38.042Z,9.73
2022-10-19T22:16:07.341Z,11.18
2022-10-19T22:18:34.989Z,10.77
2022-10-19T22:21:07.141Z,10.90
2022-10-19T22:23:34.338Z,10.18
2022-10-19T22:26:01.647Z,9.63
2022-10-19T22:28:28.883Z,9.85
2022-10-19T22:30:57.660Z,10.32
2022-10-19T22:33:25.575Z,9.75
2022-10-19T22:35:54.621Z,9.80
2022-10-19T22:38:22.188Z,10.73
2022-10-19T22:41:45.999Z,10.68
2022-10-19T22:44:31.938Z,10.45
2022-10-19T22:46:59.406Z,11.25
2022-10-19T22:49:26.568Z,10.40
2022-10-19T22:51:53.748Z,10.57
2022-10-19T22:54:20.909Z,11.27
2022-10-19T22:56:48.156Z,10.45
2022-10-19T22:59:15.397Z,10.55
2022-10-19T23:01:42.845Z,9.63
2022-10-19T23:04:10.085Z,11.50
2022-10-19T23:06:37.295Z,9.60
2022-10-19T23:09:04.697Z,10.95
2022-10-19T23:11:31.970Z,9.98
2022-10-19T23:13:59.304Z,10.55
2022-10-19T23:18:58.929Z,9.35
2022-10-19T23:21:35.137Z,10.30
2022-10-19T23:24:02.472Z,9.95
2022-10-19T23:26:29.937Z,10.05
2022-10-19T23:28:57.682Z,9.85
2022-10-19T23:31:26.728Z,9.52
2022-10-19T23:33:54.865Z,9.35
2022-10-19T23:36:28.183Z,9.23
2022-10-19T23:38:57.179Z,9.50
2022-10-19T23:41:24.859Z,9.60
2022-10-19T23:43:52.649Z,8.88
2022-10-19T23:46:27.974Z,9.30
2022-10-19T23:48:58.230Z,8.35
2022-10-19T23:51:28.315Z,9.32
2022-10-19T23:53:55.771Z,9.50
2022-10-19T23:56:25.937Z,8.38
